CXA8046 ZHCC-ZSQZ
Flight info
| Callsign | CXA8046 |
|---|---|
| Flight time | 1h 45m |
| Altitude | 31100 |
| Route | RUM9W RUMGU W594 EPGOS W128 FYG B208 MAGLI X43 JDZ H2 QO |
| Aircraft | B38M/M-SDE1FGHILORVWXY/HB1 |
Departure
| Time | 2026-04-28 12:58 |
|---|---|
| Airport | Zhengzhou Xinzheng International Airport (ZHCC) |
Arrival
| Time | 2026-04-28 14:43 |
|---|---|
| Airport | Quanzhou Jinjiang International Airport (ZSQZ) |
| Time | Latitude | Longitude | Altitude | Speed | Heading |
|---|---|---|---|---|---|
| 2026-04-28 12:19 | 34.52061 | 113.84899 | 507 ft | 0 kts | 22° |
| 2026-04-28 12:45 | 34.52053 | 113.84895 | 507 ft | 4 kts | 27° |
| 2026-04-28 12:45 | 34.52032 | 113.84875 | 507 ft | 4 kts | 60° |
| 2026-04-28 12:45 | 34.52028 | 113.84848 | 507 ft | 3 kts | 108° |
| 2026-04-28 12:45 | 34.52029 | 113.84843 | 507 ft | 1 kts | 112° |
| 2026-04-28 12:48 | 34.52028 | 113.84847 | 507 ft | 2 kts | 112° |
| 2026-04-28 12:48 | 34.52021 | 113.84868 | 507 ft | 4 kts | 112° |
| 2026-04-28 12:49 | 34.52013 | 113.84891 | 507 ft | 5 kts | 112° |
| 2026-04-28 12:49 | 34.51997 | 113.84940 | 507 ft | 7 kts | 112° |
| 2026-04-28 12:49 | 34.52000 | 113.85003 | 507 ft | 9 kts | 50° |
| 2026-04-28 12:49 | 34.52057 | 113.85038 | 507 ft | 10 kts | 22° |
| 2026-04-28 12:50 | 34.52130 | 113.85075 | 507 ft | 12 kts | 22° |
| 2026-04-28 12:50 | 34.52175 | 113.85125 | 507 ft | 9 kts | 73° |
| 2026-04-28 12:50 | 34.52155 | 113.85211 | 507 ft | 13 kts | 112° |
| 2026-04-28 12:50 | 34.52140 | 113.85306 | 507 ft | 11 kts | 56° |
| 2026-04-28 12:51 | 34.52215 | 113.85358 | 507 ft | 15 kts | 22° |
| 2026-04-28 12:51 | 34.52321 | 113.85411 | 507 ft | 18 kts | 22° |
| 2026-04-28 12:51 | 34.52439 | 113.85471 | 507 ft | 20 kts | 22° |
| 2026-04-28 12:51 | 34.52570 | 113.85537 | 507 ft | 21 kts | 22° |
| 2026-04-28 12:52 | 34.52711 | 113.85606 | 507 ft | 23 kts | 22° |
| 2026-04-28 12:52 | 34.52861 | 113.85682 | 507 ft | 24 kts | 23° |
| 2026-04-28 12:52 | 34.53002 | 113.85753 | 507 ft | 20 kts | 22° |
| 2026-04-28 12:52 | 34.53127 | 113.85814 | 507 ft | 16 kts | 18° |
| 2026-04-28 12:53 | 34.53188 | 113.85768 | 506 ft | 11 kts | 294° |
| 2026-04-28 12:53 | 34.53219 | 113.85676 | 506 ft | 13 kts | 292° |
| 2026-04-28 12:53 | 34.53256 | 113.85569 | 506 ft | 15 kts | 292° |
| 2026-04-28 12:53 | 34.53297 | 113.85447 | 506 ft | 17 kts | 292° |
| 2026-04-28 12:54 | 34.53343 | 113.85311 | 506 ft | 18 kts | 292° |
| 2026-04-28 12:54 | 34.53393 | 113.85162 | 506 ft | 20 kts | 292° |
| 2026-04-28 12:54 | 34.53448 | 113.85000 | 506 ft | 22 kts | 292° |
| 2026-04-28 12:54 | 34.53508 | 113.84827 | 507 ft | 23 kts | 292° |
| 2026-04-28 12:55 | 34.53570 | 113.84643 | 507 ft | 24 kts | 292° |
| 2026-04-28 12:55 | 34.53632 | 113.84460 | 507 ft | 21 kts | 292° |
| 2026-04-28 12:55 | 34.53686 | 113.84302 | 507 ft | 21 kts | 292° |
| 2026-04-28 12:55 | 34.53745 | 113.84131 | 507 ft | 23 kts | 292° |
| 2026-04-28 12:56 | 34.53795 | 113.84011 | 507 ft | 8 kts | 333° |
| 2026-04-28 12:56 | 34.53858 | 113.84022 | 506 ft | 11 kts | 24° |
| 2026-04-28 12:56 | 34.53928 | 113.84064 | 506 ft | 8 kts | 42° |
| 2026-04-28 12:56 | 34.53932 | 113.84129 | 506 ft | 9 kts | 113° |
| 2026-04-28 12:57 | 34.53926 | 113.84147 | 506 ft | 0 kts | 113° |
| 2026-04-28 12:57 | 34.53917 | 113.84170 | 506 ft | 10 kts | 113° |
| 2026-04-28 12:58 | 34.53792 | 113.84540 | 504 ft | 87 kts | 112° |
| 2026-04-28 12:58 | 34.53467 | 113.85493 | 500 ft | 155 kts | 112° |
| 2026-04-28 12:58 | 34.53006 | 113.86829 | 905 ft | 179 kts | 113° |
| 2026-04-28 12:58 | 34.52497 | 113.88250 | 1735 ft | 187 kts | 114° |
| 2026-04-28 12:59 | 34.51926 | 113.89714 | 2535 ft | 201 kts | 112° |
| 2026-04-28 12:59 | 34.51365 | 113.91350 | 3295 ft | 218 kts | 111° |
| 2026-04-28 12:59 | 34.50786 | 113.93141 | 3958 ft | 239 kts | 110° |
| 2026-04-28 12:59 | 34.50157 | 113.95064 | 4451 ft | 250 kts | 111° |
| 2026-04-28 13:00 | 34.49496 | 113.97052 | 4948 ft | 257 kts | 111° |
| 2026-04-28 13:00 | 34.48820 | 113.99063 | 5426 ft | 260 kts | 111° |
| 2026-04-28 13:00 | 34.48132 | 114.01100 | 5926 ft | 263 kts | 111° |
| 2026-04-28 13:00 | 34.47432 | 114.03160 | 6842 ft | 263 kts | 110° |
| 2026-04-28 13:01 | 34.46719 | 114.05234 | 7806 ft | 271 kts | 113° |
| 2026-04-28 13:01 | 34.45602 | 114.07109 | 8707 ft | 280 kts | 132° |
| 2026-04-28 13:01 | 34.44261 | 114.08854 | 9633 ft | 287 kts | 130° |
| 2026-04-28 13:01 | 34.42898 | 114.10657 | 10512 ft | 293 kts | 130° |
| 2026-04-28 13:02 | 34.41494 | 114.12498 | 11276 ft | 303 kts | 131° |
| 2026-04-28 13:02 | 34.40012 | 114.14434 | 11738 ft | 323 kts | 131° |
| 2026-04-28 13:02 | 34.38435 | 114.16488 | 12175 ft | 342 kts | 131° |
| 2026-04-28 13:02 | 34.36782 | 114.18639 | 12771 ft | 355 kts | 131° |
| 2026-04-28 13:03 | 34.35082 | 114.20849 | 13459 ft | 363 kts | 131° |
| 2026-04-28 13:03 | 34.33353 | 114.23095 | 14231 ft | 368 kts | 132° |
| 2026-04-28 13:03 | 34.31587 | 114.25387 | 14878 ft | 374 kts | 132° |
| 2026-04-28 13:03 | 34.29826 | 114.27671 | 15558 ft | 379 kts | 132° |
| 2026-04-28 13:04 | 34.28017 | 114.30017 | 16208 ft | 384 kts | 132° |
| 2026-04-28 13:04 | 34.26160 | 114.32422 | 16879 ft | 389 kts | 132° |
| 2026-04-28 13:04 | 34.24324 | 114.34798 | 17515 ft | 394 kts | 132° |
| 2026-04-28 13:04 | 34.22383 | 114.37159 | 18101 ft | 400 kts | 141° |
| 2026-04-28 13:05 | 34.19975 | 114.38895 | 18827 ft | 396 kts | 159° |
| 2026-04-28 13:05 | 34.17478 | 114.40167 | 19593 ft | 393 kts | 161° |
| 2026-04-28 13:05 | 34.14918 | 114.41463 | 20187 ft | 396 kts | 161° |
| 2026-04-28 13:05 | 34.12401 | 114.42724 | 20740 ft | 398 kts | 162° |
| 2026-04-28 13:06 | 34.09836 | 114.44005 | 21305 ft | 401 kts | 163° |
| 2026-04-28 13:06 | 34.07247 | 114.45296 | 21844 ft | 404 kts | 163° |
| 2026-04-28 13:06 | 34.04646 | 114.46593 | 22386 ft | 406 kts | 163° |
| 2026-04-28 13:06 | 34.02022 | 114.47900 | 22915 ft | 409 kts | 164° |
| 2026-04-28 13:07 | 33.99393 | 114.49209 | 23439 ft | 412 kts | 165° |
| 2026-04-28 13:07 | 33.96726 | 114.50536 | 23922 ft | 414 kts | 165° |
| 2026-04-28 13:07 | 33.94058 | 114.51861 | 24361 ft | 416 kts | 165° |
| 2026-04-28 13:07 | 33.91376 | 114.53193 | 24778 ft | 419 kts | 165° |
| 2026-04-28 13:08 | 33.88673 | 114.54534 | 25198 ft | 421 kts | 165° |
| 2026-04-28 13:08 | 33.85957 | 114.55880 | 25614 ft | 423 kts | 165° |
| 2026-04-28 13:08 | 33.83231 | 114.57231 | 26014 ft | 426 kts | 166° |
| 2026-04-28 13:08 | 33.80484 | 114.58591 | 26415 ft | 428 kts | 166° |
| 2026-04-28 13:09 | 33.77724 | 114.59957 | 26804 ft | 430 kts | 166° |
| 2026-04-28 13:09 | 33.74945 | 114.61330 | 27191 ft | 433 kts | 166° |
| 2026-04-28 13:09 | 33.72158 | 114.62707 | 27572 ft | 435 kts | 166° |
| 2026-04-28 13:09 | 33.69346 | 114.64096 | 27955 ft | 437 kts | 166° |
| 2026-04-28 13:10 | 33.66517 | 114.65481 | 28314 ft | 438 kts | 167° |
| 2026-04-28 13:10 | 33.63685 | 114.66831 | 28718 ft | 440 kts | 167° |
| 2026-04-28 13:10 | 33.60831 | 114.68193 | 29052 ft | 443 kts | 167° |
| 2026-04-28 13:10 | 33.57964 | 114.69563 | 29396 ft | 445 kts | 167° |
| 2026-04-28 13:11 | 33.55079 | 114.70941 | 29743 ft | 447 kts | 167° |
| 2026-04-28 13:11 | 33.52175 | 114.72328 | 30073 ft | 450 kts | 167° |
| 2026-04-28 13:11 | 33.49313 | 114.73918 | 30389 ft | 464 kts | 156° |
| 2026-04-28 13:11 | 33.46768 | 114.76388 | 30783 ft | 480 kts | 141° |
| 2026-04-28 13:12 | 33.44545 | 114.79398 | 31074 ft | 485 kts | 140° |
| 2026-04-28 13:12 | 33.42307 | 114.82446 | 31272 ft | 489 kts | 139° |
| 2026-04-28 13:12 | 33.40065 | 114.85533 | 31303 ft | 493 kts | 139° |
| 2026-04-28 13:13 | 33.35601 | 114.91720 | 31288 ft | 489 kts | 139° |
| 2026-04-28 13:13 | 33.31150 | 114.97884 | 31289 ft | 489 kts | 139° |
| 2026-04-28 13:14 | 33.26734 | 115.03990 | 31284 ft | 489 kts | 139° |
| 2026-04-28 13:14 | 33.22284 | 115.10132 | 31290 ft | 489 kts | 139° |
| 2026-04-28 13:15 | 33.17837 | 115.16258 | 31291 ft | 489 kts | 139° |
| 2026-04-28 13:15 | 33.13385 | 115.22382 | 31290 ft | 489 kts | 139° |
| 2026-04-28 13:16 | 33.08928 | 115.28502 | 31289 ft | 488 kts | 139° |
| 2026-04-28 13:16 | 33.04471 | 115.34614 | 31247 ft | 488 kts | 138° |
| 2026-04-28 13:17 | 33.00006 | 115.40725 | 31289 ft | 488 kts | 138° |
| 2026-04-28 13:17 | 32.97927 | 115.43941 | 31260 ft | 498 kts | 127° |
| 2026-04-28 13:17 | 32.96488 | 115.47681 | 31300 ft | 507 kts | 116° |
| 2026-04-28 13:18 | 32.93943 | 115.55574 | 31286 ft | 508 kts | 116° |
| 2026-04-28 13:18 | 32.91446 | 115.63473 | 31289 ft | 509 kts | 116° |
| 2026-04-28 13:19 | 32.88940 | 115.71289 | 31282 ft | 507 kts | 121° |
| 2026-04-28 13:19 | 32.87136 | 115.74783 | 31272 ft | 490 kts | 136° |
| 2026-04-28 13:19 | 32.84984 | 115.77942 | 31282 ft | 492 kts | 136° |
| 2026-04-28 13:20 | 32.80650 | 115.84226 | 31287 ft | 491 kts | 137° |
| 2026-04-28 13:20 | 32.76270 | 115.90448 | 31286 ft | 490 kts | 137° |
| 2026-04-28 13:21 | 32.71882 | 115.96654 | 31274 ft | 490 kts | 137° |
| 2026-04-28 13:21 | 32.67490 | 116.02856 | 31286 ft | 491 kts | 137° |
| 2026-04-28 13:22 | 32.63098 | 116.09047 | 31270 ft | 489 kts | 137° |
| 2026-04-28 13:22 | 32.58732 | 116.15191 | 31288 ft | 488 kts | 137° |
| 2026-04-28 13:23 | 32.54419 | 116.21413 | 31285 ft | 489 kts | 136° |
| 2026-04-28 13:23 | 32.50125 | 116.27660 | 31279 ft | 489 kts | 137° |
| 2026-04-28 13:24 | 32.45827 | 116.33897 | 31283 ft | 489 kts | 137° |
| 2026-04-28 13:24 | 32.41528 | 116.40126 | 31277 ft | 488 kts | 137° |
| 2026-04-28 13:25 | 32.37228 | 116.46344 | 31282 ft | 488 kts | 137° |
| 2026-04-28 13:25 | 32.32924 | 116.52558 | 31284 ft | 488 kts | 137° |
| 2026-04-28 13:26 | 32.28619 | 116.58765 | 31251 ft | 488 kts | 136° |
| 2026-04-28 13:26 | 32.24326 | 116.64945 | 31258 ft | 485 kts | 136° |
| 2026-04-28 13:27 | 32.20036 | 116.71107 | 31258 ft | 485 kts | 136° |
| 2026-04-28 13:27 | 32.15680 | 116.77192 | 31289 ft | 485 kts | 137° |
| 2026-04-28 13:28 | 32.11357 | 116.83215 | 31299 ft | 485 kts | 137° |
| 2026-04-28 13:28 | 32.06997 | 116.89281 | 31300 ft | 485 kts | 137° |
| 2026-04-28 13:29 | 32.02639 | 116.95335 | 31310 ft | 484 kts | 137° |
| 2026-04-28 13:29 | 31.98275 | 117.01394 | 31311 ft | 484 kts | 137° |
| 2026-04-28 13:30 | 31.93931 | 117.07428 | 31309 ft | 484 kts | 137° |
| 2026-04-28 13:30 | 31.89569 | 117.13478 | 31296 ft | 485 kts | 137° |
| 2026-04-28 13:31 | 31.83055 | 117.22494 | 31255 ft | 484 kts | 137° |
| 2026-04-28 13:31 | 31.78117 | 117.27531 | 31253 ft | 457 kts | 162° |
| 2026-04-28 13:32 | 31.75189 | 117.28853 | 31248 ft | 446 kts | 174° |
| 2026-04-28 13:32 | 31.72156 | 117.29346 | 31253 ft | 433 kts | 185° |
| 2026-04-28 13:32 | 31.66146 | 117.29415 | 31251 ft | 431 kts | 188° |
| 2026-04-28 13:33 | 31.60164 | 117.29190 | 31248 ft | 431 kts | 188° |
| 2026-04-28 13:33 | 31.54167 | 117.28903 | 31253 ft | 431 kts | 188° |
| 2026-04-28 13:34 | 31.48177 | 117.28622 | 31251 ft | 431 kts | 189° |
| 2026-04-28 13:34 | 31.42188 | 117.28338 | 31252 ft | 431 kts | 189° |
| 2026-04-28 13:35 | 31.36199 | 117.28054 | 31242 ft | 431 kts | 188° |
| 2026-04-28 13:35 | 31.30192 | 117.27769 | 31249 ft | 432 kts | 188° |
| 2026-04-28 13:36 | 31.24191 | 117.27475 | 31246 ft | 431 kts | 189° |
| 2026-04-28 13:36 | 31.19205 | 117.27192 | 31246 ft | 431 kts | 189° |
| 2026-04-28 13:37 | 31.13206 | 117.26858 | 31222 ft | 431 kts | 189° |
| 2026-04-28 13:37 | 31.07207 | 117.26525 | 31240 ft | 432 kts | 189° |
| 2026-04-28 13:38 | 31.01206 | 117.26192 | 31234 ft | 432 kts | 189° |
| 2026-04-28 13:38 | 30.95192 | 117.25859 | 31228 ft | 432 kts | 189° |
| 2026-04-28 13:39 | 30.89201 | 117.25527 | 31234 ft | 432 kts | 189° |
| 2026-04-28 13:39 | 30.83231 | 117.25197 | 31221 ft | 432 kts | 189° |
| 2026-04-28 13:40 | 30.77228 | 117.24880 | 31218 ft | 432 kts | 189° |
| 2026-04-28 13:40 | 30.71217 | 117.24571 | 31223 ft | 432 kts | 189° |
| 2026-04-28 13:41 | 30.65206 | 117.24262 | 31196 ft | 432 kts | 189° |
| 2026-04-28 13:41 | 30.59184 | 117.23953 | 31211 ft | 434 kts | 189° |
| 2026-04-28 13:42 | 30.53149 | 117.23643 | 31199 ft | 434 kts | 189° |
| 2026-04-28 13:42 | 30.47128 | 117.23335 | 31201 ft | 434 kts | 189° |
| 2026-04-28 13:43 | 30.41093 | 117.23026 | 31190 ft | 434 kts | 189° |
| 2026-04-28 13:43 | 30.35047 | 117.22723 | 31176 ft | 435 kts | 188° |
| 2026-04-28 13:44 | 30.29009 | 117.22421 | 31174 ft | 435 kts | 188° |
| 2026-04-28 13:44 | 30.22962 | 117.22119 | 31156 ft | 435 kts | 188° |
| 2026-04-28 13:45 | 30.16914 | 117.21818 | 31161 ft | 435 kts | 188° |
| 2026-04-28 13:45 | 30.10863 | 117.21516 | 31150 ft | 435 kts | 188° |
| 2026-04-28 13:46 | 30.04815 | 117.21216 | 31128 ft | 435 kts | 188° |
| 2026-04-28 13:46 | 29.98800 | 117.20912 | 31133 ft | 435 kts | 189° |
| 2026-04-28 13:47 | 29.92751 | 117.20596 | 31116 ft | 435 kts | 188° |
| 2026-04-28 13:47 | 29.86656 | 117.20265 | 31114 ft | 436 kts | 189° |
| 2026-04-28 13:48 | 29.80585 | 117.19929 | 31110 ft | 437 kts | 189° |
| 2026-04-28 13:48 | 29.74514 | 117.19606 | 31095 ft | 437 kts | 189° |
| 2026-04-28 13:49 | 29.68437 | 117.19302 | 31094 ft | 437 kts | 189° |
| 2026-04-28 13:49 | 29.62365 | 117.18997 | 31076 ft | 437 kts | 189° |
| 2026-04-28 13:50 | 29.56320 | 117.18694 | 31087 ft | 438 kts | 189° |
| 2026-04-28 13:50 | 29.50191 | 117.19133 | 31081 ft | 447 kts | 178° |
| 2026-04-28 13:51 | 29.44023 | 117.20151 | 31064 ft | 448 kts | 179° |
| 2026-04-28 13:51 | 29.37864 | 117.21177 | 31053 ft | 448 kts | 178° |
| 2026-04-28 13:52 | 29.31703 | 117.22203 | 31058 ft | 448 kts | 178° |
| 2026-04-28 13:52 | 29.25524 | 117.23231 | 31061 ft | 448 kts | 178° |
| 2026-04-28 13:53 | 29.19843 | 117.24176 | 31053 ft | 448 kts | 178° |
| 2026-04-28 13:53 | 29.13664 | 117.25202 | 31055 ft | 448 kts | 178° |
| 2026-04-28 13:54 | 29.07474 | 117.26228 | 31045 ft | 451 kts | 178° |
| 2026-04-28 13:54 | 29.01261 | 117.27305 | 31044 ft | 455 kts | 173° |
| 2026-04-28 13:55 | 28.95110 | 117.29065 | 31049 ft | 457 kts | 172° |
| 2026-04-28 13:55 | 28.88995 | 117.30856 | 31046 ft | 456 kts | 172° |
| 2026-04-28 13:56 | 28.82843 | 117.32661 | 31032 ft | 457 kts | 172° |
| 2026-04-28 13:56 | 28.76664 | 117.34468 | 31038 ft | 459 kts | 172° |
| 2026-04-28 13:57 | 28.70473 | 117.36277 | 31040 ft | 459 kts | 172° |
| 2026-04-28 13:57 | 28.64290 | 117.38082 | 31032 ft | 459 kts | 172° |
| 2026-04-28 13:58 | 28.58104 | 117.39885 | 31027 ft | 459 kts | 171° |
| 2026-04-28 13:58 | 28.51923 | 117.41685 | 31033 ft | 459 kts | 171° |
| 2026-04-28 13:59 | 28.45773 | 117.43473 | 31031 ft | 459 kts | 171° |
| 2026-04-28 13:59 | 28.39591 | 117.45269 | 31035 ft | 459 kts | 171° |
| 2026-04-28 14:00 | 28.33407 | 117.47063 | 31035 ft | 459 kts | 171° |
| 2026-04-28 14:00 | 28.27230 | 117.48854 | 31037 ft | 458 kts | 171° |
| 2026-04-28 14:01 | 28.21053 | 117.50641 | 31038 ft | 458 kts | 171° |
| 2026-04-28 14:01 | 28.14889 | 117.52423 | 31033 ft | 457 kts | 171° |
| 2026-04-28 14:02 | 28.08723 | 117.54203 | 31040 ft | 457 kts | 171° |
| 2026-04-28 14:02 | 28.02550 | 117.55984 | 31040 ft | 457 kts | 171° |
| 2026-04-28 14:03 | 27.96393 | 117.57758 | 31036 ft | 455 kts | 171° |
| 2026-04-28 14:03 | 27.90276 | 117.59518 | 31037 ft | 453 kts | 171° |
| 2026-04-28 14:04 | 27.84163 | 117.61274 | 31032 ft | 453 kts | 171° |
| 2026-04-28 14:04 | 27.78046 | 117.63030 | 31028 ft | 454 kts | 171° |
| 2026-04-28 14:05 | 27.71930 | 117.64784 | 31016 ft | 454 kts | 170° |
| 2026-04-28 14:05 | 27.65801 | 117.66539 | 31027 ft | 455 kts | 170° |
| 2026-04-28 14:06 | 27.59668 | 117.68294 | 31021 ft | 454 kts | 170° |
| 2026-04-28 14:06 | 27.53538 | 117.70052 | 31007 ft | 454 kts | 170° |
| 2026-04-28 14:07 | 27.47412 | 117.71820 | 31008 ft | 455 kts | 170° |
| 2026-04-28 14:07 | 27.41322 | 117.73577 | 30990 ft | 454 kts | 170° |
| 2026-04-28 14:08 | 27.35196 | 117.75341 | 31001 ft | 455 kts | 170° |
| 2026-04-28 14:08 | 27.29060 | 117.77106 | 30997 ft | 455 kts | 170° |
| 2026-04-28 14:09 | 27.22929 | 117.78867 | 30996 ft | 455 kts | 170° |
| 2026-04-28 14:09 | 27.16790 | 117.80625 | 31014 ft | 456 kts | 170° |
| 2026-04-28 14:10 | 27.10656 | 117.82379 | 30986 ft | 453 kts | 170° |
| 2026-04-28 14:10 | 27.04535 | 117.84128 | 30989 ft | 454 kts | 170° |
| 2026-04-28 14:11 | 26.98422 | 117.85873 | 30998 ft | 453 kts | 170° |
| 2026-04-28 14:11 | 26.92350 | 117.87604 | 30998 ft | 454 kts | 170° |
| 2026-04-28 14:12 | 26.86229 | 117.89349 | 30990 ft | 453 kts | 169° |
| 2026-04-28 14:12 | 26.80111 | 117.91094 | 30999 ft | 454 kts | 169° |
| 2026-04-28 14:13 | 26.74004 | 117.92834 | 30997 ft | 453 kts | 169° |
| 2026-04-28 14:13 | 26.67887 | 117.94580 | 30987 ft | 451 kts | 169° |
| 2026-04-28 14:14 | 26.64883 | 117.95437 | 30818 ft | 442 kts | 170° |
| 2026-04-28 14:14 | 26.61927 | 117.96280 | 30584 ft | 435 kts | 170° |
| 2026-04-28 14:14 | 26.59015 | 117.97119 | 30341 ft | 431 kts | 169° |
| 2026-04-28 14:14 | 26.56127 | 117.97954 | 30112 ft | 428 kts | 169° |
| 2026-04-28 14:15 | 26.53228 | 117.98599 | 29864 ft | 420 kts | 179° |
| 2026-04-28 14:15 | 26.50323 | 117.98871 | 29606 ft | 419 kts | 178° |
| 2026-04-28 14:15 | 26.47430 | 117.99169 | 29362 ft | 417 kts | 178° |
| 2026-04-28 14:15 | 26.44583 | 117.99459 | 29117 ft | 416 kts | 179° |
| 2026-04-28 14:16 | 26.41707 | 117.99750 | 28864 ft | 414 kts | 178° |
| 2026-04-28 14:16 | 26.38849 | 118.00040 | 28607 ft | 412 kts | 179° |
| 2026-04-28 14:16 | 26.35999 | 118.00327 | 28360 ft | 411 kts | 179° |
| 2026-04-28 14:16 | 26.33154 | 118.00615 | 28121 ft | 409 kts | 179° |
| 2026-04-28 14:17 | 26.30318 | 118.00901 | 27871 ft | 408 kts | 179° |
| 2026-04-28 14:17 | 26.27499 | 118.01186 | 27627 ft | 407 kts | 179° |
| 2026-04-28 14:17 | 26.24675 | 118.01471 | 27385 ft | 406 kts | 179° |
| 2026-04-28 14:17 | 26.21866 | 118.01754 | 27140 ft | 405 kts | 179° |
| 2026-04-28 14:18 | 26.19067 | 118.02036 | 26869 ft | 401 kts | 179° |
| 2026-04-28 14:18 | 26.16299 | 118.02315 | 26387 ft | 398 kts | 179° |
| 2026-04-28 14:18 | 26.13550 | 118.02591 | 25934 ft | 395 kts | 179° |
| 2026-04-28 14:18 | 26.10825 | 118.02865 | 25492 ft | 392 kts | 179° |
| 2026-04-28 14:19 | 26.08121 | 118.03137 | 25057 ft | 390 kts | 179° |
| 2026-04-28 14:19 | 26.05455 | 118.03405 | 24627 ft | 388 kts | 179° |
| 2026-04-28 14:19 | 26.02740 | 118.03678 | 24168 ft | 386 kts | 179° |
| 2026-04-28 14:19 | 26.00075 | 118.03946 | 23752 ft | 383 kts | 179° |
| 2026-04-28 14:20 | 25.97463 | 118.04208 | 23313 ft | 381 kts | 179° |
| 2026-04-28 14:20 | 25.94829 | 118.04472 | 22805 ft | 379 kts | 179° |
| 2026-04-28 14:20 | 25.92210 | 118.04735 | 22341 ft | 377 kts | 179° |
| 2026-04-28 14:20 | 25.89600 | 118.04997 | 21843 ft | 376 kts | 179° |
| 2026-04-28 14:21 | 25.86998 | 118.05258 | 21370 ft | 375 kts | 178° |
| 2026-04-28 14:21 | 25.84403 | 118.05517 | 20909 ft | 374 kts | 178° |
| 2026-04-28 14:21 | 25.81818 | 118.05776 | 20447 ft | 373 kts | 178° |
| 2026-04-28 14:21 | 25.79234 | 118.06034 | 19996 ft | 372 kts | 179° |
| 2026-04-28 14:22 | 25.76660 | 118.06292 | 19557 ft | 371 kts | 179° |
| 2026-04-28 14:22 | 25.74084 | 118.06550 | 19105 ft | 371 kts | 179° |
| 2026-04-28 14:22 | 25.71513 | 118.06807 | 18663 ft | 371 kts | 179° |
| 2026-04-28 14:22 | 25.68950 | 118.07063 | 18230 ft | 370 kts | 179° |
| 2026-04-28 14:23 | 25.66415 | 118.07316 | 17738 ft | 370 kts | 179° |
| 2026-04-28 14:23 | 25.63858 | 118.07572 | 17253 ft | 369 kts | 178° |
| 2026-04-28 14:23 | 25.61302 | 118.07826 | 16757 ft | 369 kts | 178° |
| 2026-04-28 14:23 | 25.58741 | 118.08082 | 16283 ft | 368 kts | 178° |
| 2026-04-28 14:24 | 25.56201 | 118.08335 | 15820 ft | 367 kts | 178° |
| 2026-04-28 14:24 | 25.53653 | 118.08588 | 15355 ft | 366 kts | 178° |
| 2026-04-28 14:24 | 25.51112 | 118.08841 | 14897 ft | 366 kts | 178° |
| 2026-04-28 14:24 | 25.48579 | 118.09093 | 14439 ft | 365 kts | 178° |
| 2026-04-28 14:25 | 25.46062 | 118.09344 | 14004 ft | 364 kts | 178° |
| 2026-04-28 14:25 | 25.43546 | 118.09594 | 13542 ft | 362 kts | 178° |
| 2026-04-28 14:25 | 25.41042 | 118.09843 | 13042 ft | 361 kts | 178° |
| 2026-04-28 14:25 | 25.38548 | 118.10090 | 12558 ft | 358 kts | 177° |
| 2026-04-28 14:26 | 25.36105 | 118.10333 | 12092 ft | 356 kts | 178° |
| 2026-04-28 14:26 | 25.33641 | 118.10577 | 11640 ft | 354 kts | 177° |
| 2026-04-28 14:26 | 25.31187 | 118.10821 | 11383 ft | 346 kts | 177° |
| 2026-04-28 14:26 | 25.28855 | 118.11052 | 11196 ft | 336 kts | 177° |
| 2026-04-28 14:27 | 25.26525 | 118.11283 | 11014 ft | 326 kts | 177° |
| 2026-04-28 14:27 | 25.24325 | 118.11501 | 10874 ft | 317 kts | 177° |
| 2026-04-28 14:27 | 25.22162 | 118.11716 | 10712 ft | 307 kts | 177° |
| 2026-04-28 14:27 | 25.20069 | 118.11923 | 10567 ft | 297 kts | 177° |
| 2026-04-28 14:28 | 25.18041 | 118.12130 | 10439 ft | 288 kts | 175° |
| 2026-04-28 14:28 | 25.16166 | 118.12836 | 10263 ft | 287 kts | 151° |
| 2026-04-28 14:28 | 25.14689 | 118.14335 | 9937 ft | 292 kts | 133° |
| 2026-04-28 14:28 | 25.13382 | 118.16059 | 9574 ft | 292 kts | 134° |
| 2026-04-28 14:29 | 25.12084 | 118.17763 | 9333 ft | 287 kts | 133° |
| 2026-04-28 14:29 | 25.10824 | 118.19422 | 9224 ft | 278 kts | 133° |
| 2026-04-28 14:29 | 25.09590 | 118.21049 | 8871 ft | 276 kts | 134° |
| 2026-04-28 14:29 | 25.08365 | 118.22669 | 8598 ft | 273 kts | 133° |
| 2026-04-28 14:30 | 25.07152 | 118.24271 | 8293 ft | 272 kts | 133° |
| 2026-04-28 14:30 | 25.05941 | 118.25873 | 8027 ft | 270 kts | 133° |
| 2026-04-28 14:30 | 25.04741 | 118.27458 | 7747 ft | 269 kts | 133° |
| 2026-04-28 14:30 | 25.03547 | 118.29034 | 7474 ft | 267 kts | 133° |
| 2026-04-28 14:31 | 25.02356 | 118.30607 | 7191 ft | 266 kts | 133° |
| 2026-04-28 14:31 | 25.01176 | 118.32164 | 6912 ft | 264 kts | 133° |
| 2026-04-28 14:31 | 25.00379 | 118.33215 | 6739 ft | 263 kts | 133° |
| 2026-04-28 14:31 | 24.99225 | 118.34738 | 6449 ft | 262 kts | 133° |
| 2026-04-28 14:32 | 24.98062 | 118.36271 | 6163 ft | 261 kts | 133° |
| 2026-04-28 14:32 | 24.96906 | 118.37796 | 5934 ft | 257 kts | 133° |
| 2026-04-28 14:32 | 24.95754 | 118.39314 | 5909 ft | 259 kts | 133° |
| 2026-04-28 14:32 | 24.94692 | 118.40921 | 5891 ft | 262 kts | 117° |
| 2026-04-28 14:33 | 24.94299 | 118.42867 | 5719 ft | 266 kts | 91° |
| 2026-04-28 14:33 | 24.94768 | 118.44847 | 5344 ft | 272 kts | 63° |
| 2026-04-28 14:33 | 24.95961 | 118.46464 | 5063 ft | 272 kts | 47° |
| 2026-04-28 14:33 | 24.97269 | 118.47961 | 4939 ft | 272 kts | 48° |
| 2026-04-28 14:34 | 24.99898 | 118.50983 | 4919 ft | 274 kts | 48° |
| 2026-04-28 14:34 | 25.01218 | 118.52500 | 4921 ft | 274 kts | 48° |
| 2026-04-28 14:34 | 25.02540 | 118.54017 | 4904 ft | 273 kts | 47° |
| 2026-04-28 14:35 | 25.03832 | 118.55503 | 4916 ft | 263 kts | 48° |
| 2026-04-28 14:35 | 25.05069 | 118.56926 | 4919 ft | 250 kts | 48° |
| 2026-04-28 14:35 | 25.06249 | 118.58283 | 4904 ft | 244 kts | 48° |
| 2026-04-28 14:35 | 25.07196 | 118.59789 | 4897 ft | 236 kts | 74° |
| 2026-04-28 14:36 | 25.07370 | 118.61528 | 4891 ft | 226 kts | 104° |
| 2026-04-28 14:36 | 25.07052 | 118.62610 | 4908 ft | 222 kts | 122° |
| 2026-04-28 14:36 | 25.06464 | 118.63519 | 4929 ft | 220 kts | 138° |
| 2026-04-28 14:36 | 25.06085 | 118.63906 | 4935 ft | 219 kts | 143° |
| 2026-04-28 14:37 | 25.01843 | 118.67348 | 4091 ft | 216 kts | 148° |
| 2026-04-28 14:37 | 25.00619 | 118.68288 | 3882 ft | 215 kts | 148° |
| 2026-04-28 14:37 | 24.99381 | 118.69229 | 3591 ft | 215 kts | 148° |
| 2026-04-28 14:38 | 24.98060 | 118.69856 | 3370 ft | 200 kts | 176° |
| 2026-04-28 14:38 | 24.96773 | 118.69613 | 3156 ft | 181 kts | 204° |
| 2026-04-28 14:38 | 24.95727 | 118.69024 | 2912 ft | 161 kts | 207° |
| 2026-04-28 14:38 | 24.94793 | 118.68515 | 2822 ft | 144 kts | 205° |
| 2026-04-28 14:39 | 24.93899 | 118.68010 | 2807 ft | 145 kts | 207° |
| 2026-04-28 14:39 | 24.93015 | 118.67479 | 2640 ft | 144 kts | 208° |
| 2026-04-28 14:39 | 24.92144 | 118.66931 | 2475 ft | 144 kts | 209° |
| 2026-04-28 14:39 | 24.91277 | 118.66379 | 2311 ft | 145 kts | 209° |
| 2026-04-28 14:40 | 24.90401 | 118.65817 | 2132 ft | 146 kts | 209° |
| 2026-04-28 14:40 | 24.90105 | 118.65626 | 2070 ft | 147 kts | 209° |
| 2026-04-28 14:40 | 24.88616 | 118.64667 | 1772 ft | 150 kts | 208° |
| 2026-04-28 14:40 | 24.87713 | 118.64082 | 1575 ft | 151 kts | 209° |
| 2026-04-28 14:41 | 24.86805 | 118.63497 | 1385 ft | 151 kts | 209° |
| 2026-04-28 14:41 | 24.85896 | 118.62909 | 1195 ft | 151 kts | 209° |
| 2026-04-28 14:41 | 24.84991 | 118.62325 | 1015 ft | 151 kts | 209° |
| 2026-04-28 14:41 | 24.84088 | 118.61741 | 822 ft | 150 kts | 210° |
| 2026-04-28 14:42 | 24.83192 | 118.61165 | 628 ft | 149 kts | 210° |
| 2026-04-28 14:42 | 24.82317 | 118.60593 | 432 ft | 149 kts | 210° |
| 2026-04-28 14:42 | 24.81428 | 118.60021 | 231 ft | 147 kts | 209° |
| 2026-04-28 14:42 | 24.80553 | 118.59459 | 21 ft | 144 kts | 210° |
| 2026-04-28 14:43 | 24.79839 | 118.59001 | 11 ft | 84 kts | 210° |
| 2026-04-28 14:43 | 24.79464 | 118.58757 | 11 ft | 54 kts | 210° |
| 2026-04-28 14:43 | 24.79139 | 118.58551 | 11 ft | 53 kts | 210° |
| 2026-04-28 14:43 | 24.78845 | 118.58362 | 11 ft | 45 kts | 210° |
| 2026-04-28 14:44 | 24.78734 | 118.58276 | 11 ft | 7 kts | 250° |
| 2026-04-28 14:44 | 24.78752 | 118.58219 | 11 ft | 11 kts | 299° |
| 2026-04-28 14:44 | 24.78803 | 118.58141 | 11 ft | 11 kts | 339° |
| 2026-04-28 14:44 | 24.78894 | 118.58183 | 11 ft | 17 kts | 31° |
| 2026-04-28 14:45 | 24.79005 | 118.58256 | 10 ft | 20 kts | 31° |
| 2026-04-28 14:45 | 24.79130 | 118.58336 | 10 ft | 22 kts | 30° |
| 2026-04-28 14:45 | 24.79267 | 118.58424 | 10 ft | 24 kts | 30° |
| 2026-04-28 14:45 | 24.79405 | 118.58511 | 10 ft | 20 kts | 31° |
| 2026-04-28 14:46 | 24.79530 | 118.58593 | 10 ft | 22 kts | 31° |
| 2026-04-28 14:46 | 24.79647 | 118.58668 | 10 ft | 18 kts | 30° |
| 2026-04-28 14:46 | 24.79733 | 118.58723 | 10 ft | 8 kts | 22° |
| 2026-04-28 14:46 | 24.79768 | 118.58708 | 10 ft | 5 kts | 308° |
| 2026-04-28 14:47 | 24.79778 | 118.58688 | 10 ft | 2 kts | 300° |
| 2026-04-28 14:47 | 24.79780 | 118.58685 | 10 ft | 0 kts | 300° |
| 2026-04-28 14:52 | 24.82553 | 118.60747 | 493 ft | 149 kts | 210° |
| 2026-04-28 14:52 | 24.80804 | 118.59622 | 75 ft | 146 kts | 210° |
| 2026-04-28 14:52 | 24.80728 | 118.59573 | 57 ft | 146 kts | 210° |